Time;durP1;ratioP1;P1;durP2;ratioP2;P2;SDS_P1;SDS_P2;PMS_P1;PMS_P2;Temp;Humidity;BMP_temperature;BMP_pressure;BME280_temperature;BME280_humidity;BME280_pressure;Samples;Min_cycle;Max_cycle;Signal;HPM_P1;HPM_P2
2024/03/23 09:26:40;;;;;;;3.07;0.63;;;10.70;99.90;;;;;;4914568;23;20741;-71
2024/03/23 09:29:05;;;;;;;3.20;1.27;;;11.00;99.90;;;;;;4898218;29;20662;-72
2024/03/23 09:31:33;;;;;;;2.50;0.60;;;11.30;99.90;;;;;;4898766;29;20222;-73
2024/03/23 09:33:59;;;;;;;3.17;0.50;;;11.30;99.90;;;;;;4899253;29;20214;-74
2024/03/23 09:36:26;;;;;;;1.83;0.80;;;10.80;99.90;;;;;;4898805;29;20216;-74
2024/03/23 09:38:52;;;;;;;2.73;0.70;;;10.70;99.90;;;;;;4898874;29;20238;-75
2024/03/23 09:41:19;;;;;;;0.60;0.50;;;10.70;99.90;;;;;;4898688;29;20683;-77
2024/03/23 09:43:48;;;;;;;1.67;0.80;;;10.80;99.90;;;;;;4898794;29;20383;-76
2024/03/23 09:46:15;;;;;;;1.60;0.50;;;10.30;99.90;;;;;;4898709;29;20210;-77
2024/03/23 09:48:43;;;;;;;3.80;1.10;;;10.40;99.90;;;;;;4898936;29;20246;-75
2024/03/23 09:51:10;;;;;;;7.90;1.10;;;10.40;99.90;;;;;;4898800;29;20214;-75
2024/03/23 09:53:37;;;;;;;4.13;0.87;;;10.40;99.90;;;;;;4898915;29;20638;-77
2024/03/23 09:56:05;;;;;;;2.17;1.00;;;10.50;99.90;;;;;;4898939;29;20663;-77
2024/03/23 09:58:31;;;;;;;0.70;0.50;;;10.40;99.90;;;;;;4898412;29;20274;-74
2024/03/23 10:01:00;;;;;;;3.07;0.60;;;10.60;99.90;;;;;;4898419;29;20211;-75
2024/03/23 10:03:26;;;;;;;2.07;0.40;;;10.70;99.90;;;;;;4898426;29;20644;-75
2024/03/23 10:06:02;;;;;;;4.47;1.17;;;10.90;99.90;;;;;;4898642;29;20217;-76
2024/03/23 10:08:29;;;;;;;2.50;0.90;;;10.50;99.90;;;;;;4898430;29;20222;-75
2024/03/23 10:10:56;;;;;;;1.60;0.77;;;10.10;99.90;;;;;;4898068;29;20664;-75
2024/03/23 10:13:26;;;;;;;2.20;0.60;;;10.10;99.90;;;;;;4898350;29;20268;-76
2024/03/23 10:15:58;;;;;;;1.63;0.60;;;10.30;99.90;;;;;;4898428;29;20260;-75
2024/03/23 10:18:26;;;;;;;3.77;0.70;;;10.10;99.90;;;;;;4898273;29;20293;-73
2024/03/23 10:21:08;;;;;;;3.30;0.80;;;10.50;99.90;;;;;;4898049;29;20597;-75
2024/03/23 10:23:35;;;;;;;1.97;1.00;;;10.70;99.90;;;;;;4897951;29;20376;-76
2024/03/23 10:26:24;;;;;;;3.50;0.70;;;10.60;99.90;;;;;;4897918;29;20309;-74
2024/03/23 10:28:57;;;;;;;3.63;0.70;;;10.80;99.90;;;;;;4897721;29;20673;-74
2024/03/23 10:31:25;;;;;;;2.17;0.70;;;10.90;99.90;;;;;;4897877;29;20214;-75
2024/03/23 10:33:54;;;;;;;2.90;0.73;;;11.00;99.90;;;;;;4897789;29;20706;-73
2024/03/23 10:36:22;;;;;;;3.50;0.70;;;11.10;99.90;;;;;;4898017;29;20620;-77
2024/03/23 10:38:49;;;;;;;1.73;0.80;;;11.50;99.90;;;;;;4896908;29;20671;-75
2024/03/23 10:41:16;;;;;;;1.80;0.60;;;11.80;99.90;;;;;;4900603;29;20229;-74
2024/03/23 10:43:44;;;;;;;4.83;0.80;;;11.70;99.90;;;;;;4899603;29;20273;-73
2024/03/23 10:46:11;;;;;;;1.10;0.40;;;11.30;99.90;;;;;;4897981;29;20206;-76
2024/03/23 10:48:37;;;;;;;2.40;0.50;;;11.00;99.90;;;;;;4897782;29;20214;-77
2024/03/23 10:51:08;;;;;;;2.33;0.43;;;11.10;99.90;;;;;;4897959;29;20687;-77
2024/03/23 10:53:34;;;;;;;3.20;0.50;;;11.20;99.90;;;;;;4897637;29;20660;-75
2024/03/23 10:56:01;;;;;;;2.20;0.57;;;11.10;99.90;;;;;;4897404;29;20642;-78
2024/03/23 10:58:31;;;;;;;6.43;0.50;;;11.00;99.90;;;;;;4892557;29;20659;-78
2024/03/23 11:00:58;;;;;;;0.97;0.30;;;11.00;99.90;;;;;;4895697;29;20217;-73
2024/03/23 11:03:31;;;;;;;2.60;0.60;;;11.10;99.90;;;;;;4893280;29;20295;-76
2024/03/23 11:05:58;;;;;;;2.30;0.77;;;11.10;99.90;;;;;;4896008;29;20583;-77
2024/03/23 11:08:36;;;;;;;2.87;0.50;;;10.90;99.90;;;;;;4896224;29;20404;-75
2024/03/23 11:11:17;;;;;;;2.80;1.13;;;10.90;99.90;;;;;;4895838;29;20655;-79
2024/03/23 11:13:43;;;;;;;1.37;0.53;;;10.90;99.90;;;;;;4896244;29;20245;-74
2024/03/23 11:16:17;;;;;;;1.73;0.30;;;10.90;99.90;;;;;;4896429;29;20252;-75
2024/03/23 11:18:44;;;;;;;1.10;0.57;;;10.80;99.90;;;;;;4896114;29;20214;-75
2024/03/23 11:21:32;;;;;;;1.07;0.40;;;10.90;99.90;;;;;;4896151;29;20218;-74
2024/03/23 11:24:14;;;;;;;3.63;0.50;;;11.20;99.90;;;;;;4895088;29;20674;-75
2024/03/23 11:26:41;;;;;;;2.60;0.30;;;11.30;99.90;;;;;;4895909;29;20722;-71
2024/03/23 11:29:11;;;;;;;1.00;0.40;;;11.10;99.90;;;;;;4895191;29;20644;-73
2024/03/23 11:31:38;;;;;;;0.93;0.50;;;11.30;99.90;;;;;;4895506;29;20231;-70
2024/03/23 11:34:04;;;;;;;3.13;0.40;;;11.40;99.90;;;;;;4896084;29;20607;-75
2024/03/23 11:36:31;;;;;;;3.27;0.40;;;11.60;99.90;;;;;;4895923;29;20210;-75
2024/03/23 11:38:57;;;;;;;2.60;0.60;;;11.70;99.90;;;;;;4895995;29;20253;-76
2024/03/23 11:41:26;;;;;;;2.67;0.63;;;11.80;99.90;;;;;;4895534;29;20242;-73
2024/03/23 11:43:52;;;;;;;3.73;0.80;;;11.80;99.90;;;;;;4895588;29;20281;-73
2024/03/23 11:46:23;;;;;;;2.37;0.57;;;11.60;99.90;;;;;;4895670;29;20238;-74
2024/03/23 11:48:51;;;;;;;5.07;0.83;;;11.40;99.90;;;;;;4895770;29;20249;-75
2024/03/23 11:51:18;;;;;;;0.50;0.40;;;11.20;99.90;;;;;;4899743;29;20217;-75
2024/03/23 11:53:44;;;;;;;1.13;0.30;;;11.20;99.90;;;;;;4899384;29;20337;-76
2024/03/23 11:56:11;;;;;;;0.73;0.20;;;11.30;99.90;;;;;;4898920;29;20731;-76
2024/03/23 11:58:38;;;;;;;2.60;1.00;;;11.30;99.90;;;;;;4898925;29;20285;-76
2024/03/23 12:01:05;;;;;;;2.00;1.00;;;11.30;99.90;;;;;;4898709;29;20218;-75
2024/03/23 12:03:33;;;;;;;1.83;0.40;;;11.20;99.90;;;;;;4899082;29;20271;-70
2024/03/23 12:06:01;;;;;;;0.30;0.20;;;11.20;99.90;;;;;;4899353;29;20218;-71
2024/03/23 12:08:31;;;;;;;2.23;0.30;;;11.20;99.90;;;;;;4899310;29;20242;-70
2024/03/23 12:11:07;;;;;;;1.90;0.47;;;11.30;99.90;;;;;;4899064;29;20676;-71
2024/03/23 12:13:33;;;;;;;1.73;0.40;;;11.20;99.90;;;;;;4898606;29;20324;-75
2024/03/23 12:16:12;;;;;;;1.43;0.40;;;11.10;99.90;;;;;;4898902;29;20222;-75
2024/03/23 12:18:40;;;;;;;0.90;0.30;;;10.90;99.90;;;;;;4898792;29;20714;-71
2024/03/23 12:21:07;;;;;;;3.57;0.53;;;10.70;99.90;;;;;;4898680;29;20215;-73
2024/03/23 12:23:33;;;;;;;2.70;0.30;;;10.50;99.90;;;;;;4898437;29;20278;-74
2024/03/23 12:26:00;;;;;;;2.17;0.50;;;10.50;99.90;;;;;;4898234;29;20270;-74
2024/03/23 12:28:26;;;;;;;2.80;0.40;;;10.60;99.90;;;;;;4898425;29;20214;-71
2024/03/23 12:30:53;;;;;;;1.80;0.50;;;10.70;99.90;;;;;;4899127;29;20214;-73
2024/03/23 12:33:21;;;;;;;0.30;0.20;;;10.70;99.90;;;;;;4898868;29;20234;-75
2024/03/23 12:35:48;;;;;;;0.70;0.33;;;10.10;99.90;;;;;;4898805;29;20293;-73
2024/03/23 12:38:14;;;;;;;0.67;0.30;;;9.70;99.90;;;;;;4898885;29;20719;-74
2024/03/23 12:40:41;;;;;;;1.27;0.33;;;9.50;99.90;;;;;;4898812;29;20731;-72
2024/03/23 12:43:07;;;;;;;0.33;0.20;;;9.20;99.90;;;;;;4898791;29;20238;-73
2024/03/23 12:45:34;;;;;;;1.60;0.43;;;9.30;99.90;;;;;;4899019;29;20221;-74
2024/03/23 12:48:01;;;;;;;1.27;0.30;;;9.40;99.90;;;;;;4899406;29;20238;-74
2024/03/23 12:50:28;;;;;;;1.57;0.50;;;9.60;99.90;;;;;;4897658;29;20262;-73
2024/03/23 12:52:55;;;;;;;1.53;0.40;;;9.80;99.90;;;;;;4898145;29;20241;-69
2024/03/23 12:55:21;;;;;;;1.43;0.53;;;10.00;99.90;;;;;;4898382;29;20242;-74
2024/03/23 12:57:48;;;;;;;1.73;0.40;;;10.10;99.90;;;;;;4897918;29;20310;-70
2024/03/23 13:00:16;;;;;;;4.07;0.40;;;10.30;99.90;;;;;;4897972;29;20827;-73
2024/03/23 13:02:43;;;;;;;3.03;0.50;;;10.40;99.90;;;;;;4897480;29;20321;-72
2024/03/23 13:05:09;;;;;;;1.70;0.37;;;10.40;99.90;;;;;;4898206;29;20284;-74
2024/03/23 13:07:38;;;;;;;1.73;0.53;;;10.60;99.90;;;;;;4898515;29;20267;-71
2024/03/23 13:10:05;;;;;;;1.37;0.20;;;10.70;99.90;;;;;;4897961;29;20301;-72
2024/03/23 13:12:32;;;;;;;2.60;0.30;;;11.00;99.90;;;;;;4898053;29;20576;-72
2024/03/23 13:14:59;;;;;;;0.60;0.30;;;11.20;99.90;;;;;;4897689;29;20270;-73
2024/03/23 13:17:26;;;;;;;1.57;0.30;;;11.30;99.90;;;;;;4897531;29;20675;-73
2024/03/23 13:19:52;;;;;;;1.70;0.87;;;11.40;99.90;;;;;;4897513;29;20218;-72
2024/03/23 13:22:19;;;;;;;3.43;0.23;;;11.60;99.90;;;;;;4897450;29;20627;-70
2024/03/23 13:24:46;;;;;;;0.60;0.30;;;11.80;99.90;;;;;;4897812;29;20274;-70
2024/03/23 13:27:13;;;;;;;0.90;0.20;;;11.80;99.90;;;;;;4897869;29;20214;-70
2024/03/23 13:29:39;;;;;;;2.10;0.30;;;11.90;99.90;;;;;;4899122;29;20253;-69
2024/03/23 13:32:07;;;;;;;0.30;0.20;;;11.90;99.90;;;;;;4899206;29;20230;-71
2024/03/23 13:34:34;;;;;;;2.87;0.37;;;11.50;99.90;;;;;;4899081;29;20211;-69
2024/03/23 13:37:02;;;;;;;2.23;1.07;;;11.30;99.90;;;;;;4898969;29;20235;-70
2024/03/23 13:39:28;;;;;;;1.27;0.27;;;11.30;99.90;;;;;;4899031;29;20206;-70
2024/03/23 13:41:56;;;;;;;0.50;0.30;;;11.40;99.90;;;;;;4898756;29;20227;-72
2024/03/23 13:44:22;;;;;;;2.10;0.40;;;11.50;99.90;;;;;;4898868;29;20288;-71
2024/03/23 13:46:49;;;;;;;2.23;0.20;;;11.70;99.90;;;;;;4898810;29;20364;-71
2024/03/23 13:49:25;;;;;;;0.50;0.30;;;11.90;99.90;;;;;;4898675;29;20214;-70
2024/03/23 13:51:52;;;;;;;1.30;0.30;;;11.60;99.90;;;;;;4898953;29;20301;-72
2024/03/23 13:54:18;;;;;;;0.43;0.30;;;11.40;99.90;;;;;;4898705;29;20206;-73
2024/03/23 13:56:45;;;;;;;2.43;0.30;;;11.20;99.90;;;;;;4898613;29;20563;-70
2024/03/23 13:59:12;;;;;;;2.10;0.87;;;11.20;99.90;;;;;;4898609;29;20216;-71
2024/03/23 14:01:40;;;;;;;2.87;0.50;;;11.20;99.90;;;;;;4898748;29;20278;-71
2024/03/23 14:04:06;;;;;;;0.97;0.20;;;11.50;99.90;;;;;;4898567;29;20584;-75
2024/03/23 14:06:33;;;;;;;2.00;0.30;;;11.50;99.90;;;;;;4898646;29;20218;-71
2024/03/23 14:08:59;;;;;;;1.43;0.30;;;11.50;99.90;;;;;;4898427;29;20210;-71
2024/03/23 14:11:28;;;;;;;1.20;0.20;;;11.50;99.90;;;;;;4898056;29;20218;-72
2024/03/23 14:13:54;;;;;;;2.43;0.37;;;11.60;99.90;;;;;;4898274;29;20275;-72
2024/03/23 14:16:22;;;;;;;0.70;0.37;;;11.80;99.90;;;;;;4898154;29;20277;-71
2024/03/23 14:18:48;;;;;;;2.77;0.40;;;11.60;99.90;;;;;;4898337;29;20245;-71
2024/03/23 14:21:15;;;;;;;3.33;0.87;;;11.70;99.90;;;;;;4898265;29;20274;-71
2024/03/23 14:23:41;;;;;;;5.67;0.47;;;11.80;99.90;;;;;;4898124;29;20269;-70
2024/03/23 14:26:08;;;;;;;3.43;0.30;;;11.80;99.90;;;;;;4898076;29;20309;-71
2024/03/23 14:28:35;;;;;;;2.10;0.50;;;11.70;99.90;;;;;;4898194;29;20575;-73
2024/03/23 14:31:03;;;;;;;2.73;0.60;;;11.60;99.90;;;;;;4898396;29;20210;-73
2024/03/23 14:33:32;;;;;;;0.53;0.33;;;11.70;99.90;;;;;;4898081;29;20591;-71
2024/03/23 14:35:59;;;;;;;2.40;0.30;;;11.70;99.90;;;;;;4898202;29;20224;-76
2024/03/23 14:38:25;;;;;;;0.33;0.30;;;11.70;99.90;;;;;;4897908;29;20246;-73
2024/03/23 14:40:52;;;;;;;1.50;0.30;;;11.70;99.90;;;;;;4898005;29;20245;-71
2024/03/23 14:43:18;;;;;;;1.83;0.30;;;11.60;99.90;;;;;;4897853;29;20234;-72
2024/03/23 14:46:10;;;;;;;2.40;0.30;;;11.20;99.90;;;;;;4897970;29;20687;-70
2024/03/23 14:48:38;;;;;;;2.33;0.50;;;11.00;99.90;;;;;;4897694;29;20245;-71
2024/03/23 14:51:06;;;;;;;2.57;0.40;;;10.90;99.90;;;;;;4897547;29;20252;-74
2024/03/23 14:53:32;;;;;;;1.70;0.50;;;10.90;99.90;;;;;;4897642;29;20245;-70
2024/03/23 14:56:01;;;;;;;3.80;0.63;;;11.10;99.90;;;;;;4897828;29;20210;-73
2024/03/23 14:58:27;;;;;;;2.00;0.40;;;11.30;99.90;;;;;;4897924;29;20214;-72
2024/03/23 15:01:00;;;;;;;2.17;0.40;;;11.60;99.90;;;;;;4897672;29;20218;-70
2024/03/23 15:03:26;;;;;;;3.10;0.87;;;11.60;99.90;;;;;;4897558;29;20230;-71
2024/03/23 15:05:55;;;;;;;3.70;1.00;;;11.60;99.90;;;;;;4897744;29;20294;-71
2024/03/23 15:08:21;;;;;;;0.63;0.30;;;11.60;99.90;;;;;;4897485;29;20582;-71
2024/03/23 15:10:49;;;;;;;2.50;0.40;;;11.50;99.90;;;;;;4897786;29;20222;-72
2024/03/23 15:13:16;;;;;;;2.73;0.60;;;11.50;99.90;;;;;;4897869;29;20265;-71
2024/03/23 15:15:44;;;;;;;2.93;0.73;;;11.40;99.90;;;;;;4897618;29;20241;-71
2024/03/23 15:18:12;;;;;;;4.67;0.47;;;11.60;99.90;;;;;;4897923;29;20297;-70
2024/03/23 15:20:38;;;;;;;0.57;0.30;;;11.60;99.90;;;;;;4897379;29;20210;-70
2024/03/23 15:23:07;;;;;;;1.70;0.60;;;11.70;99.90;;;;;;4926781;23;20726;-71
2024/03/23 15:25:33;;;;;;;1.83;0.20;;;11.50;99.90;;;;;;4919654;29;20233;-71
2024/03/23 15:28:00;;;;;;;1.70;0.87;;;11.60;99.90;;;;;;4920268;29;20536;-79
2024/03/23 15:30:26;;;;;;;2.73;0.40;;;11.60;99.90;;;;;;4920869;29;20231;-72
2024/03/23 15:32:53;;;;;;;0.90;0.30;;;11.50;99.90;;;;;;4907344;29;20725;-71
2024/03/23 15:35:19;;;;;;;2.77;0.40;;;11.60;99.90;;;;;;4901347;29;20663;-72
2024/03/23 15:37:46;;;;;;;1.13;0.30;;;11.60;99.90;;;;;;4901258;29;20222;-78
2024/03/23 15:40:13;;;;;;;1.53;0.40;;;11.40;99.90;;;;;;4901775;29;20301;-72
2024/03/23 15:42:40;;;;;;;2.30;0.50;;;11.30;99.90;;;;;;4902056;29;20231;-77
2024/03/23 15:45:07;;;;;;;3.07;0.50;;;11.10;99.90;;;;;;4901515;29;20270;-71
2024/03/23 15:47:35;;;;;;;5.33;0.60;;;11.20;99.90;;;;;;4901223;29;20211;-71
2024/03/23 15:50:01;;;;;;;3.40;0.67;;;11.30;99.90;;;;;;4901115;29;20235;-77
2024/03/23 15:52:28;;;;;;;3.03;0.40;;;11.00;99.90;;;;;;4901177;29;20714;-73
2024/03/23 15:54:56;;;;;;;1.03;0.30;;;10.90;99.90;;;;;;4901571;29;20218;-76
2024/03/23 15:57:25;;;;;;;5.33;0.50;;;10.70;99.90;;;;;;4901652;29;20270;-77
2024/03/23 15:59:51;;;;;;;1.00;0.30;;;10.80;99.90;;;;;;4901757;29;20211;-70
2024/03/23 16:02:18;;;;;;;3.40;0.70;;;10.90;99.90;;;;;;4901182;29;20639;-77
2024/03/23 16:04:45;;;;;;;1.10;0.30;;;10.90;99.90;;;;;;4900557;29;20278;-79
2024/03/23 16:07:13;;;;;;;2.60;0.70;;;11.00;99.90;;;;;;4900965;29;20245;-70
2024/03/23 16:09:39;;;;;;;1.93;0.50;;;11.20;99.90;;;;;;4901126;29;20249;-76
2024/03/23 16:12:06;;;;;;;3.20;0.30;;;11.30;99.90;;;;;;4901527;29;20269;-76
2024/03/23 16:14:34;;;;;;;2.07;1.00;;;11.20;99.90;;;;;;4901057;29;20245;-71
2024/03/23 16:17:00;;;;;;;0.87;0.40;;;11.20;99.90;;;;;;4900665;29;20217;-77
2024/03/23 16:19:26;;;;;;;1.33;0.63;;;11.20;99.90;;;;;;4900690;29;20245;-77
2024/03/23 16:21:54;;;;;;;2.10;0.33;;;11.20;99.90;;;;;;4901099;29;20285;-74
2024/03/23 16:24:20;;;;;;;4.97;0.70;;;11.30;99.90;;;;;;4901058;29;20454;-72
2024/03/23 16:26:46;;;;;;;1.37;0.40;;;11.40;99.90;;;;;;4900585;29;20724;-75
2024/03/23 16:29:12;;;;;;;2.47;0.40;;;11.50;99.90;;;;;;4900617;29;20710;-70
2024/03/23 16:31:41;;;;;;;1.00;0.40;;;11.50;99.90;;;;;;4900659;29;20265;-71
2024/03/23 16:34:06;;;;;;;0.63;0.37;;;11.30;99.90;;;;;;4900811;29;20246;-70
2024/03/23 16:36:33;;;;;;;0.73;0.30;;;11.10;99.90;;;;;;4899212;29;20242;-71
2024/03/23 16:38:59;;;;;;;2.33;0.37;;;11.20;99.90;;;;;;4900605;29;20242;-70
2024/03/23 16:41:27;;;;;;;1.27;0.30;;;11.20;99.90;;;;;;4900195;29;20282;-75
2024/03/23 16:43:53;;;;;;;1.97;0.33;;;11.00;99.90;;;;;;4900197;29;20234;-71
2024/03/23 16:46:20;;;;;;;1.17;0.30;;;11.00;99.90;;;;;;4900067;29;20210;-77
2024/03/23 16:48:47;;;;;;;2.90;0.50;;;10.90;99.90;;;;;;4900484;29;20210;-71
2024/03/23 16:51:14;;;;;;;2.50;0.63;;;11.00;99.90;;;;;;4900191;29;20668;-77
2024/03/23 16:53:40;;;;;;;2.50;0.40;;;11.00;99.90;;;;;;4900034;29;20238;-72
2024/03/23 16:56:08;;;;;;;1.90;0.30;;;11.00;99.90;;;;;;4899872;29;20214;-72
2024/03/23 16:58:36;;;;;;;3.47;0.50;;;10.80;99.90;;;;;;4900143;29;20257;-74
2024/03/23 17:01:07;;;;;;;1.27;0.30;;;10.70;99.90;;;;;;4899683;29;20221;-71
2024/03/23 17:03:34;;;;;;;0.47;0.17;;;10.60;99.90;;;;;;4899696;29;20226;-70
2024/03/23 17:06:04;;;;;;;0.30;0.20;;;10.50;99.90;;;;;;4899520;29;20238;-70
2024/03/23 17:08:31;;;;;;;0.80;0.40;;;10.40;99.90;;;;;;4900121;29;20639;-78
2024/03/23 17:10:59;;;;;;;4.37;0.63;;;10.40;99.90;;;;;;4899621;29;20249;-78
2024/03/23 17:13:25;;;;;;;1.33;0.30;;;10.40;99.90;;;;;;4899754;29;20234;-78
2024/03/23 17:15:52;;;;;;;3.33;0.30;;;10.50;99.90;;;;;;4900353;29;20222;-73
2024/03/23 17:18:18;;;;;;;4.17;0.50;;;10.50;99.90;;;;;;4899618;29;20560;-74
2024/03/23 17:20:45;;;;;;;1.43;0.30;;;10.50;99.90;;;;;;4899706;29;20266;-76
2024/03/23 17:23:13;;;;;;;4.83;0.50;;;10.40;99.90;;;;;;4899058;29;20277;-70
2024/03/23 17:25:40;;;;;;;2.10;0.30;;;10.30;99.90;;;;;;4900874;29;20246;-76
2024/03/23 17:28:06;;;;;;;2.43;0.40;;;10.30;99.90;;;;;;4899634;29;20245;-70
2024/03/23 17:30:33;;;;;;;4.63;0.60;;;10.30;99.90;;;;;;4901425;29;20225;-70
2024/03/23 17:32:59;;;;;;;2.20;0.37;;;10.20;99.90;;;;;;4901309;29;20230;-77
2024/03/23 17:35:26;;;;;;;4.03;0.40;;;10.40;99.90;;;;;;4900146;29;20721;-81
2024/03/23 17:37:52;;;;;;;2.57;0.40;;;10.40;99.90;;;;;;4902672;29;20242;-71
2024/03/23 17:40:20;;;;;;;3.37;0.70;;;10.30;99.90;;;;;;4902734;29;20217;-70
2024/03/23 17:42:46;;;;;;;2.30;0.47;;;10.20;99.90;;;;;;4902935;29;20265;-71
2024/03/23 17:45:13;;;;;;;2.57;1.07;;;10.10;99.90;;;;;;4899970;29;20727;-75
2024/03/23 17:47:40;;;;;;;1.63;0.50;;;10.20;99.90;;;;;;4899162;29;20214;-75
2024/03/23 17:50:08;;;;;;;1.90;0.73;;;10.30;99.90;;;;;;4899364;29;20210;-71
2024/03/23 17:52:35;;;;;;;1.60;0.53;;;10.30;99.90;;;;;;4898721;29;20774;-72
2024/03/23 17:55:02;;;;;;;2.57;0.53;;;9.90;99.90;;;;;;4898991;29;20218;-71
2024/03/23 17:57:29;;;;;;;2.03;0.80;;;9.40;99.90;;;;;;4899224;29;20246;-71
2024/03/23 17:59:56;;;;;;;1.53;0.50;;;8.90;99.90;;;;;;4899010;29;20210;-80
2024/03/23 18:02:22;;;;;;;2.53;0.80;;;8.60;99.90;;;;;;4899293;29;20258;-71
2024/03/23 18:04:50;;;;;;;2.57;0.70;;;8.10;99.90;;;;;;4899235;29;20246;-71
2024/03/23 18:07:16;;;;;;;1.63;0.40;;;7.70;99.90;;;;;;4898782;29;20214;-78
2024/03/23 18:09:43;;;;;;;4.13;0.70;;;7.30;99.90;;;;;;4906054;29;20234;-73
2024/03/23 18:12:10;;;;;;;0.67;0.40;;;7.20;99.90;;;;;;4908143;29;20240;-76
2024/03/23 18:14:38;;;;;;;1.13;0.30;;;7.00;99.90;;;;;;4908938;29;20197;-71
2024/03/23 18:17:04;;;;;;;2.63;0.50;;;7.00;99.90;;;;;;4908536;29;20571;-73
2024/03/23 18:19:31;;;;;;;0.40;0.20;;;6.90;99.90;;;;;;4899183;29;20217;-72
2024/03/23 18:21:57;;;;;;;0.90;0.33;;;6.80;99.90;;;;;;4898437;29;20266;-71
2024/03/23 18:24:24;;;;;;;4.07;0.50;;;6.70;99.90;;;;;;4898384;29;20269;-71
2024/03/23 18:26:50;;;;;;;2.23;0.50;;;6.80;99.90;;;;;;4898481;29;20246;-78
2024/03/23 18:29:17;;;;;;;1.23;0.70;;;6.80;99.90;;;;;;4898547;29;20637;-72
2024/03/23 18:31:44;;;;;;;3.60;0.40;;;6.80;99.90;;;;;;4898533;29;20309;-77
2024/03/23 18:34:11;;;;;;;1.50;0.47;;;6.80;99.90;;;;;;4898408;29;20210;-81
2024/03/23 18:36:37;;;;;;;1.90;0.40;;;6.80;99.90;;;;;;4898563;29;20237;-76
2024/03/23 18:39:04;;;;;;;1.07;0.63;;;6.90;99.90;;;;;;4898209;29;20242;-80
2024/03/23 18:41:30;;;;;;;3.17;0.60;;;6.90;99.90;;;;;;4898328;29;20216;-71
2024/03/23 18:43:57;;;;;;;5.23;0.70;;;7.00;99.90;;;;;;4898258;29;20297;-72
2024/03/23 18:46:24;;;;;;;1.00;0.53;;;7.10;99.90;;;;;;4898296;29;20214;-79
2024/03/23 18:48:52;;;;;;;0.70;0.50;;;7.10;99.90;;;;;;4898243;29;20206;-76
2024/03/23 18:51:20;;;;;;;2.33;0.80;;;7.10;99.90;;;;;;4898069;29;20679;-70
2024/03/23 18:53:46;;;;;;;2.90;0.60;;;7.10;99.90;;;;;;4898813;29;20293;-80
2024/03/23 18:56:13;;;;;;;2.00;0.70;;;7.00;99.90;;;;;;4897951;29;20210;-70
2024/03/23 18:58:40;;;;;;;1.57;0.80;;;7.00;99.90;;;;;;4897710;29;20249;-70
2024/03/23 19:01:06;;;;;;;3.97;0.80;;;6.90;99.90;;;;;;4898050;29;20683;-70
2024/03/23 19:03:33;;;;;;;1.93;1.17;;;6.90;99.90;;;;;;4897926;29;20242;-73
2024/03/23 19:06:02;;;;;;;4.00;0.93;;;6.80;99.90;;;;;;4897999;29;20277;-70
2024/03/23 19:08:29;;;;;;;6.63;1.30;;;6.80;99.90;;;;;;4898114;29;20225;-76
2024/03/23 19:10:57;;;;;;;1.50;0.60;;;6.80;99.90;;;;;;4897818;29;20246;-74
2024/03/23 19:13:24;;;;;;;2.40;0.70;;;6.80;99.90;;;;;;4897730;29;20285;-69
2024/03/23 19:15:50;;;;;;;1.43;0.73;;;6.80;99.90;;;;;;4898143;29;20249;-74
2024/03/23 19:18:17;;;;;;;3.37;0.67;;;6.70;99.90;;;;;;4898302;29;20221;-72
2024/03/23 19:20:50;;;;;;;2.83;0.93;;;6.70;99.90;;;;;;4897789;29;20210;-79
2024/03/23 19:23:18;;;;;;;7.37;0.90;;;6.70;99.90;;;;;;4897917;29;20273;-79
2024/03/23 19:25:51;;;;;;;1.63;0.90;;;6.60;99.90;;;;;;4897872;29;20273;-70
2024/03/23 19:28:18;;;;;;;2.10;0.70;;;6.60;99.90;;;;;;4897935;29;20229;-71
2024/03/23 19:30:44;;;;;;;1.10;0.70;;;6.60;99.90;;;;;;4897666;29;20675;-70
2024/03/23 19:33:11;;;;;;;2.10;1.00;;;6.50;99.90;;;;;;4897598;29;20272;-78
2024/03/23 19:35:37;;;;;;;2.23;0.73;;;6.50;99.90;;;;;;4897892;29;20245;-71
2024/03/23 19:38:04;;;;;;;4.93;1.03;;;6.50;99.90;;;;;;4897660;29;20253;-71
2024/03/23 19:40:31;;;;;;;5.27;0.80;;;6.40;99.90;;;;;;4897855;29;20242;-71
2024/03/23 19:42:58;;;;;;;1.57;0.80;;;6.40;99.90;;;;;;4897865;29;20230;-81
2024/03/23 19:45:24;;;;;;;0.90;0.60;;;6.30;99.90;;;;;;4897577;29;20766;-70
2024/03/23 19:47:51;;;;;;;1.77;0.50;;;6.20;99.90;;;;;;4898061;29;20237;-76
2024/03/23 19:50:17;;;;;;;0.90;0.53;;;6.30;99.90;;;;;;4897795;29;20242;-71
2024/03/23 19:52:44;;;;;;;1.67;1.03;;;6.30;99.90;;;;;;4897893;29;20231;-78
2024/03/23 19:55:10;;;;;;;2.03;0.70;;;6.30;99.90;;;;;;4897715;29;20638;-72
2024/03/23 19:57:39;;;;;;;1.10;0.73;;;6.40;99.90;;;;;;4897367;29;20214;-71
2024/03/23 20:00:08;;;;;;;0.60;0.47;;;6.40;99.90;;;;;;4897789;29;20253;-71
2024/03/23 20:02:35;;;;;;;1.60;0.70;;;6.30;99.90;;;;;;4897525;29;20286;-70
2024/03/23 20:05:01;;;;;;;2.07;0.70;;;6.30;99.90;;;;;;4897553;29;20286;-76
2024/03/23 20:07:28;;;;;;;3.23;1.00;;;6.30;99.90;;;;;;4897413;29;20242;-70
2024/03/23 20:09:54;;;;;;;1.20;0.53;;;6.40;99.90;;;;;;4897730;29;20238;-70
2024/03/23 20:12:21;;;;;;;1.40;0.80;;;6.40;99.90;;;;;;4900691;29;20716;-71
2024/03/23 20:14:48;;;;;;;4.10;0.80;;;6.50;99.90;;;;;;4900804;29;20274;-74
2024/03/23 20:17:15;;;;;;;1.63;0.60;;;6.40;99.90;;;;;;4902202;29;20219;-75
2024/03/23 20:19:41;;;;;;;1.17;0.70;;;6.40;99.90;;;;;;4906961;29;20690;-71
2024/03/23 20:22:07;;;;;;;2.07;0.80;;;6.40;99.90;;;;;;4907849;29;20238;-70
2024/03/23 20:24:33;;;;;;;1.00;0.60;;;6.40;99.90;;;;;;4909736;29;20222;-75
2024/03/23 20:27:00;;;;;;;2.67;0.67;;;6.40;99.90;;;;;;4918799;29;20210;-81
2024/03/23 20:29:27;;;;;;;2.87;0.57;;;6.40;99.90;;;;;;4918856;29;20211;-76
2024/03/23 20:31:55;;;;;;;1.40;0.50;;;6.20;99.90;;;;;;4920179;29;20230;-75
2024/03/23 20:34:21;;;;;;;3.03;0.57;;;6.20;99.90;;;;;;4917479;29;20214;-77
2024/03/23 20:36:48;;;;;;;1.03;0.57;;;6.10;99.90;;;;;;4909846;29;20210;-77
2024/03/23 20:39:15;;;;;;;2.27;0.60;;;6.10;99.90;;;;;;4906304;29;20210;-76
2024/03/23 20:41:42;;;;;;;0.73;0.50;;;6.10;99.90;;;;;;4903912;29;20230;-78
2024/03/23 20:44:08;;;;;;;2.40;0.60;;;6.00;99.90;;;;;;4903447;29;20210;-74
2024/03/23 20:46:35;;;;;;;1.53;0.50;;;6.00;99.90;;;;;;4902278;29;20298;-79
2024/03/23 20:49:02;;;;;;;1.27;0.57;;;5.90;99.90;;;;;;4901202;29;20238;-82
2024/03/23 20:51:29;;;;;;;1.47;0.60;;;5.90;99.90;;;;;;4900492;29;20302;-81
2024/03/23 20:53:55;;;;;;;2.30;1.00;;;5.80;99.90;;;;;;4900685;29;20242;-73
2024/03/23 20:56:22;;;;;;;3.53;0.60;;;5.80;99.90;;;;;;4900406;29;20214;-72
2024/03/23 20:58:48;;;;;;;3.10;0.70;;;5.70;99.90;;;;;;4901700;29;20242;-80
2024/03/23 21:01:15;;;;;;;2.40;0.70;;;5.60;99.90;;;;;;4900366;29;20250;-71
2024/03/23 21:03:41;;;;;;;1.73;0.80;;;5.60;99.90;;;;;;4899665;29;20262;-71
2024/03/23 21:06:09;;;;;;;2.50;0.60;;;5.60;99.90;;;;;;4900033;29;20234;-71
2024/03/23 21:08:35;;;;;;;3.30;0.60;;;5.70;99.90;;;;;;4900147;29;20323;-81
2024/03/23 21:11:03;;;;;;;1.30;0.60;;;5.70;99.90;;;;;;4899721;29;20680;-78
2024/03/23 21:13:29;;;;;;;2.80;0.83;;;5.60;99.90;;;;;;4900241;29;20234;-81
2024/03/23 21:15:59;;;;;;;1.97;0.60;;;5.60;99.90;;;;;;4899651;29;20254;-71
2024/03/23 21:18:25;;;;;;;1.63;0.50;;;5.60;99.90;;;;;;4899650;29;20207;-70
2024/03/23 21:20:56;;;;;;;3.73;1.00;;;5.70;99.90;;;;;;4899895;29;20617;-71
2024/03/23 21:23:24;;;;;;;4.00;0.57;;;5.70;99.90;;;;;;4899235;29;20707;-70
2024/03/23 21:25:57;;;;;;;1.77;0.67;;;5.70;99.90;;;;;;4899699;29;20611;-70
2024/03/23 21:28:23;;;;;;;1.80;0.53;;;5.70;99.90;;;;;;4899615;29;20252;-70
2024/03/23 21:30:50;;;;;;;0.93;0.50;;;5.60;99.90;;;;;;4899760;29;20242;-77
2024/03/23 21:33:16;;;;;;;0.90;0.40;;;5.60;99.90;;;;;;4899500;29;20658;-80
2024/03/23 21:35:43;;;;;;;2.03;1.00;;;5.60;99.90;;;;;;4899466;29;20246;-70
2024/03/23 21:38:09;;;;;;;1.73;0.70;;;5.60;99.90;;;;;;4899377;29;20214;-71
2024/03/23 21:40:37;;;;;;;3.30;0.83;;;5.50;99.90;;;;;;4899366;29;20628;-70
2024/03/23 21:43:04;;;;;;;1.00;0.60;;;5.50;99.90;;;;;;4899329;29;20573;-70
2024/03/23 21:45:31;;;;;;;3.73;0.90;;;5.50;99.90;;;;;;4898871;29;20234;-81
2024/03/23 21:47:58;;;;;;;1.53;0.70;;;5.50;99.90;;;;;;4899192;29;20646;-70
2024/03/23 21:50:25;;;;;;;1.20;0.57;;;5.50;99.90;;;;;;4899114;29;20214;-70
2024/03/23 21:52:51;;;;;;;3.07;0.70;;;5.40;99.90;;;;;;4899101;29;20708;-70
2024/03/23 21:55:18;;;;;;;4.13;1.10;;;5.50;99.90;;;;;;4899533;29;20256;-75
2024/03/23 21:57:48;;;;;;;3.80;0.53;;;5.40;99.90;;;;;;4899066;29;20245;-70
2024/03/23 22:00:15;;;;;;;1.57;0.80;;;5.50;99.90;;;;;;4899322;29;20202;-75
2024/03/23 22:02:41;;;;;;;1.20;0.60;;;5.40;99.90;;;;;;4899113;29;20261;-71
2024/03/23 22:05:10;;;;;;;2.23;0.53;;;5.40;99.90;;;;;;4898809;29;20282;-81
2024/03/23 22:07:36;;;;;;;2.40;0.77;;;5.40;99.90;;;;;;4899098;29;20314;-75
2024/03/23 22:10:04;;;;;;;2.77;0.70;;;5.40;99.90;;;;;;4898756;29;20400;-70
2024/03/23 22:12:30;;;;;;;2.47;1.47;;;5.50;99.90;;;;;;4898413;29;20234;-71
2024/03/23 22:14:58;;;;;;;4.33;0.80;;;5.50;99.90;;;;;;4898730;29;20624;-71
2024/03/23 22:17:26;;;;;;;1.17;0.70;;;5.50;99.90;;;;;;4898669;29;20311;-82